sensor_id;sensor_type;location;lat;lon;timestamp;temperature;humidity
21275;DHT22;36472;52.170;20.884;2022-09-09T00:00:28;24.90;56.00
21275;DHT22;36472;52.170;20.884;2022-09-09T00:03:26;24.80;56.10
21275;DHT22;36472;52.170;20.884;2022-09-09T00:06:06;24.70;56.30
21275;DHT22;36472;52.170;20.884;2022-09-09T00:08:49;24.70;56.50
21275;DHT22;36472;52.170;20.884;2022-09-09T00:11:29;24.60;57.10
21275;DHT22;36472;52.170;20.884;2022-09-09T00:14:13;24.50;56.80
21275;DHT22;36472;52.170;20.884;2022-09-09T00:16:50;24.40;56.90
21275;DHT22;36472;52.170;20.884;2022-09-09T00:19:26;24.30;56.90
21275;DHT22;36472;52.170;20.884;2022-09-09T00:22:13;24.30;57.10
21275;DHT22;36472;52.170;20.884;2022-09-09T00:24:47;24.30;57.50
21275;DHT22;36472;52.170;20.884;2022-09-09T00:27:25;24.30;57.50
21275;DHT22;36472;52.170;20.884;2022-09-09T00:30:12;24.30;57.10
21275;DHT22;36472;52.170;20.884;2022-09-09T00:32:44;24.30;57.30
21275;DHT22;36472;52.170;20.884;2022-09-09T00:35:17;24.30;57.40
21275;DHT22;36472;52.170;20.884;2022-09-09T00:37:52;24.30;57.40
21275;DHT22;36472;52.170;20.884;2022-09-09T00:40:31;24.20;57.40
21275;DHT22;36472;52.170;20.884;2022-09-09T00:43:24;24.20;57.50
21275;DHT22;36472;52.170;20.884;2022-09-09T00:46:20;24.20;57.70
21275;DHT22;36472;52.170;20.884;2022-09-09T00:49:04;24.20;58.30
21275;DHT22;36472;52.170;20.884;2022-09-09T00:51:46;24.20;57.60
21275;DHT22;36472;52.170;20.884;2022-09-09T00:54:31;24.10;57.60
21275;DHT22;36472;52.170;20.884;2022-09-09T00:57:25;24.00;57.80
21275;DHT22;36472;52.170;20.884;2022-09-09T01:00:00;24.00;58.40
21275;DHT22;36472;52.170;20.884;2022-09-09T01:02:53;24.00;58.20
21275;DHT22;36472;52.170;20.884;2022-09-09T01:05:37;24.00;58.10
21275;DHT22;36472;52.170;20.884;2022-09-09T01:08:33;24.00;58.00
21275;DHT22;36472;52.170;20.884;2022-09-09T01:11:14;24.00;58.80
21275;DHT22;36472;52.170;20.884;2022-09-09T01:13:55;23.90;58.20
21275;DHT22;36472;52.170;20.884;2022-09-09T01:16:31;23.90;62.70
21275;DHT22;36472;52.170;20.884;2022-09-09T01:19:03;23.70;58.80
21275;DHT22;36472;52.170;20.884;2022-09-09T01:21:42;23.80;58.70
21275;DHT22;36472;52.170;20.884;2022-09-09T01:24:24;23.80;58.50
21275;DHT22;36472;52.170;20.884;2022-09-09T01:27:13;23.90;58.50
21275;DHT22;36472;52.170;20.884;2022-09-09T01:29:45;24.00;58.40
21275;DHT22;36472;52.170;20.884;2022-09-09T01:32:39;24.00;58.40
21275;DHT22;36472;52.170;20.884;2022-09-09T01:35:18;24.10;58.40
21275;DHT22;36472;52.170;20.884;2022-09-09T01:37:59;24.20;58.20
21275;DHT22;36472;52.170;20.884;2022-09-09T01:40:28;24.30;58.20
21275;DHT22;36472;52.170;20.884;2022-09-09T01:42:59;24.30;57.90
21275;DHT22;36472;52.170;20.884;2022-09-09T01:45:28;24.40;57.80
21275;DHT22;36472;52.170;20.884;2022-09-09T01:47:58;24.40;57.70
21275;DHT22;36472;52.170;20.884;2022-09-09T01:50:49;24.50;57.60
21275;DHT22;36472;52.170;20.884;2022-09-09T01:53:20;24.60;57.60
21275;DHT22;36472;52.170;20.884;2022-09-09T01:55:58;24.60;57.40
21275;DHT22;36472;52.170;20.884;2022-09-09T01:58:47;24.70;57.10
21275;DHT22;36472;52.170;20.884;2022-09-09T02:01:30;24.70;57.00
21275;DHT22;36472;52.170;20.884;2022-09-09T02:04:13;24.80;57.00
21275;DHT22;36472;52.170;20.884;2022-09-09T02:06:54;24.80;56.90
21275;DHT22;36472;52.170;20.884;2022-09-09T02:09:30;24.80;56.90
21275;DHT22;36472;52.170;20.884;2022-09-09T02:12:05;24.90;56.90
21275;DHT22;36472;52.170;20.884;2022-09-09T02:14:55;24.90;56.90
21275;DHT22;36472;52.170;20.884;2022-09-09T02:17:36;24.90;56.70
21275;DHT22;36472;52.170;20.884;2022-09-09T02:20:15;24.90;56.80
21275;DHT22;36472;52.170;20.884;2022-09-09T02:22:52;24.80;56.90
21275;DHT22;36472;52.170;20.884;2022-09-09T02:25:26;24.80;56.90
21275;DHT22;36472;52.170;20.884;2022-09-09T02:28:07;24.80;57.00
21275;DHT22;36472;52.170;20.884;2022-09-09T02:30:40;24.90;57.10
21275;DHT22;36472;52.170;20.884;2022-09-09T02:33:12;24.90;57.00
21275;DHT22;36472;52.170;20.884;2022-09-09T02:35:46;24.80;56.80
21275;DHT22;36472;52.170;20.884;2022-09-09T02:38:21;24.80;56.90
21275;DHT22;36472;52.170;20.884;2022-09-09T02:41:02;24.90;56.90
21275;DHT22;36472;52.170;20.884;2022-09-09T02:43:33;24.90;56.90
21275;DHT22;36472;52.170;20.884;2022-09-09T02:46:20;24.90;56.60
21275;DHT22;36472;52.170;20.884;2022-09-09T02:49:01;24.90;56.70
21275;DHT22;36472;52.170;20.884;2022-09-09T02:51:43;25.00;56.90
21275;DHT22;36472;52.170;20.884;2022-09-09T02:54:27;24.90;56.90
21275;DHT22;36472;52.170;20.884;2022-09-09T02:57:06;24.90;56.80
21275;DHT22;36472;52.170;20.884;2022-09-09T02:59:40;24.90;57.00
21275;DHT22;36472;52.170;20.884;2022-09-09T03:02:13;24.90;57.00
21275;DHT22;36472;52.170;20.884;2022-09-09T03:04:45;24.90;57.20
21275;DHT22;36472;52.170;20.884;2022-09-09T03:07:20;24.80;57.10
21275;DHT22;36472;52.170;20.884;2022-09-09T03:09:50;24.80;57.30
21275;DHT22;36472;52.170;20.884;2022-09-09T03:12:25;24.90;57.30
21275;DHT22;36472;52.170;20.884;2022-09-09T03:14:54;24.90;57.30
21275;DHT22;36472;52.170;20.884;2022-09-09T03:17:25;24.90;57.20
21275;DHT22;36472;52.170;20.884;2022-09-09T03:19:55;25.00;57.10
21275;DHT22;36472;52.170;20.884;2022-09-09T03:22:26;25.00;57.00
21275;DHT22;36472;52.170;20.884;2022-09-09T03:24:58;25.00;57.10
21275;DHT22;36472;52.170;20.884;2022-09-09T03:27:28;25.10;57.00
21275;DHT22;36472;52.170;20.884;2022-09-09T03:29:57;25.10;57.00
21275;DHT22;36472;52.170;20.884;2022-09-09T03:32:27;25.10;57.60
21275;DHT22;36472;52.170;20.884;2022-09-09T03:34:57;25.10;57.00
21275;DHT22;36472;52.170;20.884;2022-09-09T03:37:26;25.10;57.00
21275;DHT22;36472;52.170;20.884;2022-09-09T03:39:55;25.10;56.80
21275;DHT22;36472;52.170;20.884;2022-09-09T03:42:23;25.10;56.80
21275;DHT22;36472;52.170;20.884;2022-09-09T03:44:54;25.10;56.90
21275;DHT22;36472;52.170;20.884;2022-09-09T03:47:25;25.10;57.00
21275;DHT22;36472;52.170;20.884;2022-09-09T03:50:03;25.00;57.10
21275;DHT22;36472;52.170;20.884;2022-09-09T03:52:37;25.00;57.10
21275;DHT22;36472;52.170;20.884;2022-09-09T03:55:13;25.10;57.20
21275;DHT22;36472;52.170;20.884;2022-09-09T03:57:42;25.10;57.20
21275;DHT22;36472;52.170;20.884;2022-09-09T04:00:12;25.10;57.00
21275;DHT22;36472;52.170;20.884;2022-09-09T04:02:49;25.20;57.00
21275;DHT22;36472;52.170;20.884;2022-09-09T04:05:22;25.30;57.10
21275;DHT22;36472;52.170;20.884;2022-09-09T04:07:51;25.20;56.80
21275;DHT22;36472;52.170;20.884;2022-09-09T04:10:21;25.20;56.80
21275;DHT22;36472;52.170;20.884;2022-09-09T04:12:51;25.20;56.90
21275;DHT22;36472;52.170;20.884;2022-09-09T04:15:21;25.30;56.90
21275;DHT22;36472;52.170;20.884;2022-09-09T04:17:50;25.20;56.90
21275;DHT22;36472;52.170;20.884;2022-09-09T04:20:18;25.20;56.90
21275;DHT22;36472;52.170;20.884;2022-09-09T04:22:49;25.20;57.00
21275;DHT22;36472;52.170;20.884;2022-09-09T04:25:18;25.20;57.00
21275;DHT22;36472;52.170;20.884;2022-09-09T04:27:47;25.20;57.10
21275;DHT22;36472;52.170;20.884;2022-09-09T04:30:19;25.20;57.20
21275;DHT22;36472;52.170;20.884;2022-09-09T04:32:48;25.20;57.20
21275;DHT22;36472;52.170;20.884;2022-09-09T04:35:17;25.30;57.30
21275;DHT22;36472;52.170;20.884;2022-09-09T04:37:48;25.20;57.30
21275;DHT22;36472;52.170;20.884;2022-09-09T04:40:17;25.30;57.30
21275;DHT22;36472;52.170;20.884;2022-09-09T04:42:46;25.20;57.30
21275;DHT22;36472;52.170;20.884;2022-09-09T04:45:17;25.20;57.20
21275;DHT22;36472;52.170;20.884;2022-09-09T04:47:46;25.30;57.30
21275;DHT22;36472;52.170;20.884;2022-09-09T04:50:16;25.20;57.20
21275;DHT22;36472;52.170;20.884;2022-09-09T04:52:46;25.30;57.40
21275;DHT22;36472;52.170;20.884;2022-09-09T04:55:16;25.30;57.40
21275;DHT22;36472;52.170;20.884;2022-09-09T04:57:46;25.30;57.30
21275;DHT22;36472;52.170;20.884;2022-09-09T05:00:16;25.30;57.20
21275;DHT22;36472;52.170;20.884;2022-09-09T05:02:48;25.30;57.30
21275;DHT22;36472;52.170;20.884;2022-09-09T05:05:17;25.30;57.20
21275;DHT22;36472;52.170;20.884;2022-09-09T05:07:49;25.40;57.20
21275;DHT22;36472;52.170;20.884;2022-09-09T05:10:19;25.40;57.10
21275;DHT22;36472;52.170;20.884;2022-09-09T05:12:52;25.40;57.20
21275;DHT22;36472;52.170;20.884;2022-09-09T05:15:24;25.40;57.10
21275;DHT22;36472;52.170;20.884;2022-09-09T05:17:56;25.50;57.10
21275;DHT22;36472;52.170;20.884;2022-09-09T05:20:28;25.50;57.00
21275;DHT22;36472;52.170;20.884;2022-09-09T05:22:58;25.50;57.10
21275;DHT22;36472;52.170;20.884;2022-09-09T05:25:29;25.50;57.00
21275;DHT22;36472;52.170;20.884;2022-09-09T05:27:58;25.50;57.00
21275;DHT22;36472;52.170;20.884;2022-09-09T05:30:28;25.50;57.10
21275;DHT22;36472;52.170;20.884;2022-09-09T05:33:00;25.60;57.20
21275;DHT22;36472;52.170;20.884;2022-09-09T05:35:28;25.60;57.20
21275;DHT22;36472;52.170;20.884;2022-09-09T05:38:00;25.60;57.10
21275;DHT22;36472;52.170;20.884;2022-09-09T05:40:29;25.60;57.00
21275;DHT22;36472;52.170;20.884;2022-09-09T05:43:00;25.60;57.00
21275;DHT22;36472;52.170;20.884;2022-09-09T05:45:30;25.60;57.10
21275;DHT22;36472;52.170;20.884;2022-09-09T05:48:00;25.60;57.20
21275;DHT22;36472;52.170;20.884;2022-09-09T05:50:30;25.70;57.20
21275;DHT22;36472;52.170;20.884;2022-09-09T05:53:00;25.70;57.30
21275;DHT22;36472;52.170;20.884;2022-09-09T05:55:29;25.60;57.00
21275;DHT22;36472;52.170;20.884;2022-09-09T05:57:58;25.70;57.00
21275;DHT22;36472;52.170;20.884;2022-09-09T06:00:27;25.70;57.80
21275;DHT22;36472;52.170;20.884;2022-09-09T06:02:59;25.70;57.30
21275;DHT22;36472;52.170;20.884;2022-09-09T06:05:28;25.70;57.20
21275;DHT22;36472;52.170;20.884;2022-09-09T06:08:00;25.70;57.20
21275;DHT22;36472;52.170;20.884;2022-09-09T06:10:29;25.80;57.20
21275;DHT22;36472;52.170;20.884;2022-09-09T06:12:58;25.80;57.10
21275;DHT22;36472;52.170;20.884;2022-09-09T06:15:26;25.80;57.10
21275;DHT22;36472;52.170;20.884;2022-09-09T06:17:58;25.80;57.20
21275;DHT22;36472;52.170;20.884;2022-09-09T06:20:26;25.80;57.10
21275;DHT22;36472;52.170;20.884;2022-09-09T06:22:59;25.80;57.20
21275;DHT22;36472;52.170;20.884;2022-09-09T06:25:28;25.80;57.20
21275;DHT22;36472;52.170;20.884;2022-09-09T06:27:57;25.80;57.20
21275;DHT22;36472;52.170;20.884;2022-09-09T06:30:25;25.80;57.20
21275;DHT22;36472;52.170;20.884;2022-09-09T06:32:55;25.80;57.20
21275;DHT22;36472;52.170;20.884;2022-09-09T06:35:25;25.80;57.30
21275;DHT22;36472;52.170;20.884;2022-09-09T06:37:53;25.70;57.20
21275;DHT22;36472;52.170;20.884;2022-09-09T06:40:24;25.80;57.30
21275;DHT22;36472;52.170;20.884;2022-09-09T06:42:53;25.80;57.50
21275;DHT22;36472;52.170;20.884;2022-09-09T06:45:33;25.80;57.40
21275;DHT22;36472;52.170;20.884;2022-09-09T06:48:04;25.80;57.40
21275;DHT22;36472;52.170;20.884;2022-09-09T06:50:32;25.90;57.50
21275;DHT22;36472;52.170;20.884;2022-09-09T06:53:02;25.90;57.40
21275;DHT22;36472;52.170;20.884;2022-09-09T06:55:32;25.90;57.30
21275;DHT22;36472;52.170;20.884;2022-09-09T06:58:02;26.00;57.30
21275;DHT22;36472;52.170;20.884;2022-09-09T07:00:30;26.00;57.20
21275;DHT22;36472;52.170;20.884;2022-09-09T07:03:00;26.10;57.20
21275;DHT22;36472;52.170;20.884;2022-09-09T07:05:28;26.10;57.20
21275;DHT22;36472;52.170;20.884;2022-09-09T07:07:57;26.20;57.20
21275;DHT22;36472;52.170;20.884;2022-09-09T07:10:26;26.20;57.00
21275;DHT22;36472;52.170;20.884;2022-09-09T07:12:56;26.20;57.00
21275;DHT22;36472;52.170;20.884;2022-09-09T07:15:25;26.20;57.00
21275;DHT22;36472;52.170;20.884;2022-09-09T07:17:54;26.20;57.10
21275;DHT22;36472;52.170;20.884;2022-09-09T07:20:23;26.10;57.00
21275;DHT22;36472;52.170;20.884;2022-09-09T07:22:54;26.10;57.20
21275;DHT22;36472;52.170;20.884;2022-09-09T07:25:25;26.00;57.30
21275;DHT22;36472;52.170;20.884;2022-09-09T07:27:58;26.00;57.50
21275;DHT22;36472;52.170;20.884;2022-09-09T07:30:27;25.90;57.50
21275;DHT22;36472;52.170;20.884;2022-09-09T07:32:57;26.00;57.80
21275;DHT22;36472;52.170;20.884;2022-09-09T07:35:26;26.00;57.80
21275;DHT22;36472;52.170;20.884;2022-09-09T07:37:55;26.10;57.90
21275;DHT22;36472;52.170;20.884;2022-09-09T07:40:25;26.10;57.70
21275;DHT22;36472;52.170;20.884;2022-09-09T07:42:54;26.10;57.90
21275;DHT22;36472;52.170;20.884;2022-09-09T07:45:24;26.20;57.90
21275;DHT22;36472;52.170;20.884;2022-09-09T07:47:55;26.30;58.00
21275;DHT22;36472;52.170;20.884;2022-09-09T07:50:25;26.30;57.80
21275;DHT22;36472;52.170;20.884;2022-09-09T07:52:54;26.30;57.70
21275;DHT22;36472;52.170;20.884;2022-09-09T07:55:24;26.30;57.50
21275;DHT22;36472;52.170;20.884;2022-09-09T07:57:55;26.30;57.30
21275;DHT22;36472;52.170;20.884;2022-09-09T08:00:25;26.30;57.30
21275;DHT22;36472;52.170;20.884;2022-09-09T08:02:57;26.40;57.40
21275;DHT22;36472;52.170;20.884;2022-09-09T08:05:28;26.40;57.40
21275;DHT22;36472;52.170;20.884;2022-09-09T08:07:57;26.50;57.40
21275;DHT22;36472;52.170;20.884;2022-09-09T08:10:26;26.50;57.30
21275;DHT22;36472;52.170;20.884;2022-09-09T08:12:55;26.50;57.20
21275;DHT22;36472;52.170;20.884;2022-09-09T08:15:45;26.50;57.20
21275;DHT22;36472;52.170;20.884;2022-09-09T08:18:14;26.50;57.20
21275;DHT22;36472;52.170;20.884;2022-09-09T08:20:44;26.40;57.20
21275;DHT22;36472;52.170;20.884;2022-09-09T08:23:14;26.50;57.40
21275;DHT22;36472;52.170;20.884;2022-09-09T08:25:43;26.50;57.50
21275;DHT22;36472;52.170;20.884;2022-09-09T08:28:13;26.60;57.60
21275;DHT22;36472;52.170;20.884;2022-09-09T08:30:42;26.70;57.60
21275;DHT22;36472;52.170;20.884;2022-09-09T08:33:12;26.70;57.60
21275;DHT22;36472;52.170;20.884;2022-09-09T08:35:49;26.70;57.50
21275;DHT22;36472;52.170;20.884;2022-09-09T08:38:20;26.80;57.30
21275;DHT22;36472;52.170;20.884;2022-09-09T08:40:50;26.90;57.30
21275;DHT22;36472;52.170;20.884;2022-09-09T08:43:29;27.00;57.20
21275;DHT22;36472;52.170;20.884;2022-09-09T08:46:03;27.10;57.30
21275;DHT22;36472;52.170;20.884;2022-09-09T08:48:47;27.10;57.00
21275;DHT22;36472;52.170;20.884;2022-09-09T08:51:26;27.20;56.80
21275;DHT22;36472;52.170;20.884;2022-09-09T08:54:01;27.10;56.60
21275;DHT22;36472;52.170;20.884;2022-09-09T08:56:32;27.20;56.50
21275;DHT22;36472;52.170;20.884;2022-09-09T08:59:03;27.10;56.60
21275;DHT22;36472;52.170;20.884;2022-09-09T09:01:45;27.10;56.80
21275;DHT22;36472;52.170;20.884;2022-09-09T09:04:56;26.90;56.80
21275;DHT22;36472;52.170;20.884;2022-09-09T09:07:42;26.90;57.10
21275;DHT22;36472;52.170;20.884;2022-09-09T09:10:33;26.90;57.30
21275;DHT22;36472;52.170;20.884;2022-09-09T09:13:19;27.00;57.30
21275;DHT22;36472;52.170;20.884;2022-09-09T09:15:58;27.00;57.80
21275;DHT22;36472;52.170;20.884;2022-09-09T09:18:31;27.10;57.30
21275;DHT22;36472;52.170;20.884;2022-09-09T09:21:07;27.20;57.30
21275;DHT22;36472;52.170;20.884;2022-09-09T09:23:47;27.20;57.30
21275;DHT22;36472;52.170;20.884;2022-09-09T09:26:24;27.20;57.10
21275;DHT22;36472;52.170;20.884;2022-09-09T09:28:59;27.20;57.00
21275;DHT22;36472;52.170;20.884;2022-09-09T09:31:36;27.20;57.00
21275;DHT22;36472;52.170;20.884;2022-09-09T09:34:07;27.20;57.00
21275;DHT22;36472;52.170;20.884;2022-09-09T09:36:42;27.30;57.50
21275;DHT22;36472;52.170;20.884;2022-09-09T09:39:24;27.30;56.70
21275;DHT22;36472;52.170;20.884;2022-09-09T09:42:17;27.20;56.70
21275;DHT22;36472;52.170;20.884;2022-09-09T09:44:51;27.20;56.80
21275;DHT22;36472;52.170;20.884;2022-09-09T09:47:23;27.20;57.00
21275;DHT22;36472;52.170;20.884;2022-09-09T09:50:01;27.20;57.00
21275;DHT22;36472;52.170;20.884;2022-09-09T09:52:41;27.20;57.30
21275;DHT22;36472;52.170;20.884;2022-09-09T09:55:13;27.30;57.40
21275;DHT22;36472;52.170;20.884;2022-09-09T09:57:45;27.40;57.30
21275;DHT22;36472;52.170;20.884;2022-09-09T10:00:16;27.40;57.20
21275;DHT22;36472;52.170;20.884;2022-09-09T10:02:59;27.50;57.20
21275;DHT22;36472;52.170;20.884;2022-09-09T10:05:35;27.50;56.80
21275;DHT22;36472;52.170;20.884;2022-09-09T10:08:13;27.50;56.70
21275;DHT22;36472;52.170;20.884;2022-09-09T10:13:59;27.60;56.70
21275;DHT22;36472;52.170;20.884;2022-09-09T10:16:47;27.40;57.20
21275;DHT22;36472;52.170;20.884;2022-09-09T10:19:30;27.40;57.00
21275;DHT22;36472;52.170;20.884;2022-09-09T10:22:13;27.50;57.20
21275;DHT22;36472;52.170;20.884;2022-09-09T10:25:09;27.40;56.90
21275;DHT22;36472;52.170;20.884;2022-09-09T10:28:02;27.40;57.00
21275;DHT22;36472;52.170;20.884;2022-09-09T10:30:53;27.40;57.00
21275;DHT22;36472;52.170;20.884;2022-09-09T10:33:35;27.50;57.10
21275;DHT22;36472;52.170;20.884;2022-09-09T10:36:13;27.50;57.00
21275;DHT22;36472;52.170;20.884;2022-09-09T10:38:49;27.60;57.00
21275;DHT22;36472;52.170;20.884;2022-09-09T10:41:36;27.60;57.10
21275;DHT22;36472;52.170;20.884;2022-09-09T10:44:33;27.60;56.90
21275;DHT22;36472;52.170;20.884;2022-09-09T10:47:34;27.60;56.90
21275;DHT22;36472;52.170;20.884;2022-09-09T10:50:29;27.60;56.70
21275;DHT22;36472;52.170;20.884;2022-09-09T10:53:49;27.70;56.80
21275;DHT22;36472;52.170;20.884;2022-09-09T10:56:28;27.70;56.90
21275;DHT22;36472;52.170;20.884;2022-09-09T10:59:02;27.70;56.90
21275;DHT22;36472;52.170;20.884;2022-09-09T11:01:39;27.70;56.70
21275;DHT22;36472;52.170;20.884;2022-09-09T11:04:16;27.80;57.50
21275;DHT22;36472;52.170;20.884;2022-09-09T11:06:53;27.90;57.00
21275;DHT22;36472;52.170;20.884;2022-09-09T11:09:27;27.80;56.70
21275;DHT22;36472;52.170;20.884;2022-09-09T11:12:01;27.80;56.80
21275;DHT22;36472;52.170;20.884;2022-09-09T11:14:36;27.70;56.80
21275;DHT22;36472;52.170;20.884;2022-09-09T11:17:12;27.80;56.60
21275;DHT22;36472;52.170;20.884;2022-09-09T11:19:45;27.70;56.80
21275;DHT22;36472;52.170;20.884;2022-09-09T11:22:23;27.70;57.10
21275;DHT22;36472;52.170;20.884;2022-09-09T11:25:00;27.70;57.20
21275;DHT22;36472;52.170;20.884;2022-09-09T11:27:39;27.70;57.30
21275;DHT22;36472;52.170;20.884;2022-09-09T11:30:18;27.70;57.40
21275;DHT22;36472;52.170;20.884;2022-09-09T11:36:49;27.80;57.30
21275;DHT22;36472;52.170;20.884;2022-09-09T11:39:38;27.90;57.10
21275;DHT22;36472;52.170;20.884;2022-09-09T11:42:22;27.90;57.60
21275;DHT22;36472;52.170;20.884;2022-09-09T11:44:53;28.00;57.00
21275;DHT22;36472;52.170;20.884;2022-09-09T11:47:25;27.90;56.90
21275;DHT22;36472;52.170;20.884;2022-09-09T11:50:09;28.00;57.20
21275;DHT22;36472;52.170;20.884;2022-09-09T11:52:41;28.00;57.10
21275;DHT22;36472;52.170;20.884;2022-09-09T11:55:27;27.90;57.00
21275;DHT22;36472;52.170;20.884;2022-09-09T11:58:01;28.00;57.10
21275;DHT22;36472;52.170;20.884;2022-09-09T12:00:35;28.00;57.00
21275;DHT22;36472;52.170;20.884;2022-09-09T12:03:08;28.10;57.10
21275;DHT22;36472;52.170;20.884;2022-09-09T12:06:14;28.20;57.30
21275;DHT22;36472;52.170;20.884;2022-09-09T12:08:50;28.20;57.00
21275;DHT22;36472;52.170;20.884;2022-09-09T12:11:26;28.30;56.80
21275;DHT22;36472;52.170;20.884;2022-09-09T12:13:58;28.40;56.70
21275;DHT22;36472;52.170;20.884;2022-09-09T12:16:31;28.40;56.50
21275;DHT22;36472;52.170;20.884;2022-09-09T12:19:12;28.40;56.30
21275;DHT22;36472;52.170;20.884;2022-09-09T12:21:48;28.20;56.20
21275;DHT22;36472;52.170;20.884;2022-09-09T12:24:29;28.20;56.50
21275;DHT22;36472;52.170;20.884;2022-09-09T12:27:11;28.10;56.70
21275;DHT22;36472;52.170;20.884;2022-09-09T12:29:53;28.10;56.90
21275;DHT22;36472;52.170;20.884;2022-09-09T12:32:30;28.10;57.00
21275;DHT22;36472;52.170;20.884;2022-09-09T12:35:02;28.20;57.20
21275;DHT22;36472;52.170;20.884;2022-09-09T12:37:35;28.20;57.20
21275;DHT22;36472;52.170;20.884;2022-09-09T12:40:19;28.30;57.20
21275;DHT22;36472;52.170;20.884;2022-09-09T12:42:51;28.40;57.20
21275;DHT22;36472;52.170;20.884;2022-09-09T12:45:21;28.40;57.10
21275;DHT22;36472;52.170;20.884;2022-09-09T12:47:57;28.50;57.20
21275;DHT22;36472;52.170;20.884;2022-09-09T12:50:31;28.60;57.00
21275;DHT22;36472;52.170;20.884;2022-09-09T12:53:03;28.60;56.70
21275;DHT22;36472;52.170;20.884;2022-09-09T12:55:38;28.60;56.30
21275;DHT22;36472;52.170;20.884;2022-09-09T12:58:13;28.50;56.20
21275;DHT22;36472;52.170;20.884;2022-09-09T13:00:50;28.40;56.50
21275;DHT22;36472;52.170;20.884;2022-09-09T13:03:22;28.40;56.80
21275;DHT22;36472;52.170;20.884;2022-09-09T13:05:52;28.50;56.90
21275;DHT22;36472;52.170;20.884;2022-09-09T13:08:27;28.40;56.90
21275;DHT22;36472;52.170;20.884;2022-09-09T13:10:58;28.40;56.80
21275;DHT22;36472;52.170;20.884;2022-09-09T13:13:34;28.30;56.80
21275;DHT22;36472;52.170;20.884;2022-09-09T13:16:06;28.30;57.20
21275;DHT22;36472;52.170;20.884;2022-09-09T13:18:48;28.30;57.80
21275;DHT22;36472;52.170;20.884;2022-09-09T13:21:18;28.30;57.30
21275;DHT22;36472;52.170;20.884;2022-09-09T13:23:51;28.30;57.20
21275;DHT22;36472;52.170;20.884;2022-09-09T13:26:22;28.30;57.30
21275;DHT22;36472;52.170;20.884;2022-09-09T13:28:53;28.30;57.20
21275;DHT22;36472;52.170;20.884;2022-09-09T13:31:27;28.40;57.20
21275;DHT22;36472;52.170;20.884;2022-09-09T13:33:58;28.40;57.20
21275;DHT22;36472;52.170;20.884;2022-09-09T13:36:29;28.40;57.20
21275;DHT22;36472;52.170;20.884;2022-09-09T13:39:01;28.50;57.90
21275;DHT22;36472;52.170;20.884;2022-09-09T13:41:33;28.50;57.10
21275;DHT22;36472;52.170;20.884;2022-09-09T13:44:04;28.50;56.90
21275;DHT22;36472;52.170;20.884;2022-09-09T13:46:35;28.50;57.70
21275;DHT22;36472;52.170;20.884;2022-09-09T13:49:21;28.50;56.90
21275;DHT22;36472;52.170;20.884;2022-09-09T13:51:51;28.50;56.80
21275;DHT22;36472;52.170;20.884;2022-09-09T13:54:21;28.40;56.90
21275;DHT22;36472;52.170;20.884;2022-09-09T13:56:49;28.40;57.70
21275;DHT22;36472;52.170;20.884;2022-09-09T13:59:19;28.40;57.70
21275;DHT22;36472;52.170;20.884;2022-09-09T14:01:48;28.40;57.00
21275;DHT22;36472;52.170;20.884;2022-09-09T14:04:21;28.50;57.20
21275;DHT22;36472;52.170;20.884;2022-09-09T14:06:50;28.50;57.10
21275;DHT22;36472;52.170;20.884;2022-09-09T14:09:19;28.40;57.00
21275;DHT22;36472;52.170;20.884;2022-09-09T14:11:47;28.40;57.00
21275;DHT22;36472;52.170;20.884;2022-09-09T14:14:16;28.30;57.00
21275;DHT22;36472;52.170;20.884;2022-09-09T14:16:45;28.30;57.10
21275;DHT22;36472;52.170;20.884;2022-09-09T14:19:14;28.30;57.20
21275;DHT22;36472;52.170;20.884;2022-09-09T14:21:44;28.30;57.30
21275;DHT22;36472;52.170;20.884;2022-09-09T14:24:12;28.20;57.30
21275;DHT22;36472;52.170;20.884;2022-09-09T14:26:41;28.20;57.60
21275;DHT22;36472;52.170;20.884;2022-09-09T14:29:10;28.10;57.60
21275;DHT22;36472;52.170;20.884;2022-09-09T14:31:38;28.10;57.70
21275;DHT22;36472;52.170;20.884;2022-09-09T14:34:07;28.10;57.90
21275;DHT22;36472;52.170;20.884;2022-09-09T14:36:37;28.10;57.90
21275;DHT22;36472;52.170;20.884;2022-09-09T14:39:07;28.10;58.00
21275;DHT22;36472;52.170;20.884;2022-09-09T14:41:36;28.20;58.00
21275;DHT22;36472;52.170;20.884;2022-09-09T14:44:05;28.20;57.70
21275;DHT22;36472;52.170;20.884;2022-09-09T14:46:33;28.10;57.60
21275;DHT22;36472;52.170;20.884;2022-09-09T14:49:03;28.20;57.70
21275;DHT22;36472;52.170;20.884;2022-09-09T14:51:32;28.20;57.70
21275;DHT22;36472;52.170;20.884;2022-09-09T14:54:01;28.20;57.80
21275;DHT22;36472;52.170;20.884;2022-09-09T14:56:32;28.30;57.50
21275;DHT22;36472;52.170;20.884;2022-09-09T14:59:02;28.30;57.40
21275;DHT22;36472;52.170;20.884;2022-09-09T15:01:32;28.30;57.50
21275;DHT22;36472;52.170;20.884;2022-09-09T15:04:03;28.40;57.20
21275;DHT22;36472;52.170;20.884;2022-09-09T15:06:35;28.40;57.20
21275;DHT22;36472;52.170;20.884;2022-09-09T15:09:05;28.40;57.20
21275;DHT22;36472;52.170;20.884;2022-09-09T15:11:37;28.40;57.10
21275;DHT22;36472;52.170;20.884;2022-09-09T15:14:06;28.50;57.20
21275;DHT22;36472;52.170;20.884;2022-09-09T15:16:38;28.50;57.00
21275;DHT22;36472;52.170;20.884;2022-09-09T15:19:08;28.40;56.90
21275;DHT22;36472;52.170;20.884;2022-09-09T15:21:37;28.40;57.00
21275;DHT22;36472;52.170;20.884;2022-09-09T15:24:07;28.50;57.00
21275;DHT22;36472;52.170;20.884;2022-09-09T15:26:37;28.50;56.90
21275;DHT22;36472;52.170;20.884;2022-09-09T15:29:07;28.60;56.80
21275;DHT22;36472;52.170;20.884;2022-09-09T15:31:36;28.60;56.70
21275;DHT22;36472;52.170;20.884;2022-09-09T15:34:06;28.70;56.70
21275;DHT22;36472;52.170;20.884;2022-09-09T15:36:37;28.60;56.30
21275;DHT22;36472;52.170;20.884;2022-09-09T15:39:08;28.60;56.30
21275;DHT22;36472;52.170;20.884;2022-09-09T15:41:42;28.60;56.40
21275;DHT22;36472;52.170;20.884;2022-09-09T15:44:11;28.50;56.30
21275;DHT22;36472;52.170;20.884;2022-09-09T15:46:41;28.50;56.50
21275;DHT22;36472;52.170;20.884;2022-09-09T15:49:13;28.40;56.60
21275;DHT22;36472;52.170;20.884;2022-09-09T15:51:46;28.40;56.70
21275;DHT22;36472;52.170;20.884;2022-09-09T15:54:20;28.40;56.80
21275;DHT22;36472;52.170;20.884;2022-09-09T15:56:54;28.40;56.80
21275;DHT22;36472;52.170;20.884;2022-09-09T15:59:25;28.40;56.80
21275;DHT22;36472;52.170;20.884;2022-09-09T16:01:56;28.40;56.60
21275;DHT22;36472;52.170;20.884;2022-09-09T16:04:27;28.40;56.60
21275;DHT22;36472;52.170;20.884;2022-09-09T16:06:59;28.40;56.60